Abbott, Arkansas
Current Conditions -  °F | °C
As of 2:15 AM on Monday 24 Nov 2014 (Local Time) from KRKR Reporting Station
Scattered Clouds Scattered Clouds  
Wind Chill: 41°   Ceiling: Unl
Heat Index: 45°   Visibility: 10mi
Dew Point: 36°   Wind: 7mph
Humidity: 69%   Direction: 280°W
Pressure: 29.76"   Gusts: 17mph
Location:  35.0213°N, 94.2023°W
Report Text: KRKR 240815Z AUTO 28006G15KT 10SM SCT110 07/02 A2976 RMK AO2 T00730020
Loading
Personal Weather Stations






























Interactive Weather Map New forecast layout! Learn more

10-Day Weather Forecast

Advertisements
Track Severe Weather on mobile